Royal Melbourne — WDC2865 — position and weather

sailwx.info

Track history (hours):
 
Tides and Currents Weather Stations Pressure Air Temp Water Temp Dewpoint Dewpoint Depression Visibility Wind Speed Wind Dir Waves Ship Positions

Royal Melbourne

Owner: Harley Marine Services, Inc, Seattle, WA. More information available from US FCC via Universal Licensing System and Coast Guard Vessel Documentation Center.

Last reported at 2017-Apr-24 23:00 UTC. Time now 2017-Apr-24 23:02 UTC.
Position N 37°48' W 122°17'.

Length 30 m; draft 2 m.

Type: Tug. MMSI: 366998830.

Date/timePositionNaut miles runAvg speedWind from/ knotsBaromVisibWave heightAir tempDewpointWater temp
2017-Apr-24 23:00N 37°48' W 122°17'0 0.0
2017-Apr-24 22:30N 37°48' W 122°17'0 0.0
2017-Apr-24 21:57N 37°48' W 122°17'0 0.0
2017-Apr-24 21:27N 37°48' W 122°17'0 0.0
2017-Apr-24 21:00N 37°48' W 122°17'0 0.0
2017-Apr-24 20:30N 37°48' W 122°17'0 0.0
2017-Apr-24 20:00N 37°48' W 122°17'0 0.0
2017-Apr-24 19:27N 37°48' W 122°17'0 0.0
2017-Apr-24 19:00N 37°48' W 122°17'0 0.0
2017-Apr-24 18:30N 37°48' W 122°17'0 0.0
2017-Apr-24 18:00N 37°48' W 122°17'0 0.0
2017-Apr-24 17:30N 37°48' W 122°17'0 0.0
2017-Apr-24 17:00N 37°48' W 122°17'0 0.0
2017-Apr-24 16:30N 37°48' W 122°17'0 0.0
2017-Apr-24 16:00N 37°48' W 122°17'0 0.0
2017-Apr-24 15:27N 37°48' W 122°17'0 0.0
2017-Apr-24 15:00N 37°48' W 122°17'0 0.0
2017-Apr-24 14:30N 37°48' W 122°17'3 3.5
2017-Apr-24 13:30N 37°45' W 122°20'0 0.3
2017-Apr-24 12:59N 37°45' W 122°20'0 0.2
2017-Apr-24 12:26N 37°45' W 122°20'0 0.1
2017-Apr-24 11:59N 37°45' W 122°20'0 0.1
2017-Apr-24 11:29N 37°45' W 122°20'0 0.0
2017-Apr-24 10:59N 37°45' W 122°20'0 0.0
2017-Apr-24 10:29N 37°45' W 122°20'0 0.0
2017-Apr-24 09:59N 37°45' W 122°20'0 0.0
2017-Apr-24 09:29N 37°45' W 122°20'0 0.0
2017-Apr-24 08:59N 37°45' W 122°20'0 0.0
2017-Apr-24 08:29N 37°45' W 122°20'0 0.0
2017-Apr-24 07:59N 37°45' W 122°20'0 0.4
2017-Apr-24 07:29N 37°45' W 122°20'0 0.1
2017-Apr-24 06:59N 37°45' W 122°20'0 0.1
2017-Apr-24 06:29N 37°45' W 122°20'0 0.0
2017-Apr-24 05:56N 37°45' W 122°20'0 0.0
2017-Apr-24 05:29N 37°45' W 122°20'0 0.0
2017-Apr-24 04:56N 37°45' W 122°20'0 0.1
2017-Apr-24 04:28N 37°45' W 122°20'0 0.0
2017-Apr-24 03:58N 37°45' W 122°20'0 0.1
2017-Apr-24 03:28N 37°45' W 122°20'0 0.0
2017-Apr-24 02:58N 37°45' W 122°20'0 0.3
2017-Apr-24 02:30N 37°45' W 122°20'1 1.0
2017-Apr-24 01:59N 37°45' W 122°20'0 0.0
2017-Apr-24 01:29N 37°45' W 122°20'0 0.1
2017-Apr-24 00:59N 37°45' W 122°20'0 0.0
2017-Apr-24 00:29N 37°45' W 122°20'0 0.0
2017-Apr-23 23:59N 37°46' W 122°20'2 3.6
2017-Apr-23 23:30N 37°47' W 122°21'3 5.1
2017-Apr-23 23:00N 37°48' W 122°24'0 0.0
2017-Apr-23 22:25N 37°48' W 122°24'0 0.1
2017-Apr-23 21:55N 37°48' W 122°24'0 0.1
2017-Apr-23 21:25N 37°48' W 122°24'0 0.1
2017-Apr-23 20:58N 37°48' W 122°24'0 0.0
2017-Apr-23 20:28N 37°48' W 122°24'0 0.0
2017-Apr-23 19:58N 37°48' W 122°24'0 0.0
2017-Apr-23 19:13N 37°48' W 122°24'0 0.2
2017-Apr-23 18:58N 37°48' W 122°24'0 0.0
2017-Apr-23 18:28N 37°48' W 122°24'0 0.0
2017-Apr-23 17:58N 37°48' W 122°24'0 0.0
2017-Apr-23 17:28N 37°48' W 122°24'0 0.0
2017-Apr-23 16:58N 37°48' W 122°24'0 0.1
2017-Apr-23 16:28N 37°48' W 122°24'0 0.1
2017-Apr-23 15:52N 37°48' W 122°24'0 0.0
2017-Apr-23 15:25N 37°48' W 122°24'0 0.1
2017-Apr-23 14:46N 37°48' W 122°24'0 0.1
2017-Apr-23 14:00N 37°48' W 122°24'2 3.5
2017-Apr-23 13:30N 37°50' W 122°23'3 5.1
2017-Apr-23 13:00N 37°52' W 122°24'2 4.6
2017-Apr-23 12:30N 37°54' W 122°22'1 1.2
2017-Apr-23 11:55N 37°55' W 122°22'0 0.0
2017-Apr-23 11:28N 37°55' W 122°22'0 0.0
2017-Apr-23 10:55N 37°55' W 122°22'0 0.0
2017-Apr-23 10:28N 37°55' W 122°22'0 0.0
2017-Apr-23 09:58N 37°55' W 122°22'0 0.0
2017-Apr-23 09:25N 37°55' W 122°22'0 0.0
2017-Apr-23 08:55N 37°55' W 122°22'0 0.0
2017-Apr-23 08:25N 37°55' W 122°22'0 0.0
2017-Apr-23 07:55N 37°55' W 122°22'0 0.0
2017-Apr-23 07:16N 37°55' W 122°22'0 0.0
2017-Apr-23 06:58N 37°55' W 122°22'0 0.0
2017-Apr-23 05:58N 37°55' W 122°22'0 0.0
2017-Apr-23 05:25N 37°55' W 122°22'0 0.0
2017-Apr-23 04:52N 37°55' W 122°22'0 0.0
2017-Apr-23 04:28N 37°55' W 122°22'0 0.0
2017-Apr-23 03:55N 37°55' W 122°22'0 0.0
2017-Apr-23 03:28N 37°55' W 122°22'0 0.0
2017-Apr-23 02:58N 37°55' W 122°22'0 0.0
2017-Apr-23 02:28N 37°55' W 122°22'0 0.0
2017-Apr-23 01:58N 37°55' W 122°22'0 0.0
2017-Apr-23 01:22N 37°55' W 122°22'0 0.0
2017-Apr-23 00:43N 37°55' W 122°22'0 0.0
2017-Apr-23 00:28N 37°55' W 122°22'0 0.0
2017-Apr-22 23:55N 37°55' W 122°22'0 0.0
2017-Apr-22 23:28N 37°55' W 122°22'0 0.0
2017-Apr-22 22:43N 37°55' W 122°22'0 0.0
2017-Apr-22 22:22N 37°55' W 122°22'0 0.0
2017-Apr-22 21:58N 37°55' W 122°22'0 0.0
2017-Apr-22 21:28N 37°55' W 122°22'0 0.0
2017-Apr-22 20:58N 37°55' W 122°22'0 0.0
2017-Apr-22 20:22N 37°55' W 122°22'0 0.0
2017-Apr-22 19:58N 37°55' W 122°22'0 0.0
2017-Apr-22 19:19N 37°55' W 122°22'0 0.2
2017-Apr-22 18:55N 37°55' W 122°22'0 0.0
2017-Apr-22 18:28N 37°55' W 122°22'0 0.0
2017-Apr-22 17:55N 37°55' W 122°22'0 0.0
2017-Apr-22 17:25N 37°55' W 122°22'0 0.0
2017-Apr-22 16:58N 37°55' W 122°22'0 0.0
2017-Apr-22 16:28N 37°55' W 122°22'0 0.0
2017-Apr-22 15:55N 37°55' W 122°22'0 0.0
2017-Apr-22 15:30N 37°55' W 122°22'2 3.8
2017-Apr-22 14:58N 37°55' W 122°24'4 7.8
2017-Apr-22 14:29N 37°58' W 122°26'9 9.2
2017-Apr-22 13:30N 38°04' W 122°16'0 0.7
2017-Apr-22 13:00N 38°03' W 122°16'3 5.9
2017-Apr-22 12:30N 38°03' W 122°20'4 7.6
2017-Apr-22 12:00N 38°01' W 122°24'4 8.1
2017-Apr-22 11:29N 37°57' W 122°26'4 8.7
2017-Apr-22 11:00N 37°53' W 122°24'4 8.9
2017-Apr-22 10:30N 37°49' W 122°21'4 7.5
2017-Apr-22 09:59N 37°48' W 122°17'0 0.0
2017-Apr-22 09:29N 37°48' W 122°17'0 0.0
2017-Apr-22 09:00N 37°48' W 122°17'0 0.0
2017-Apr-22 08:29N 37°48' W 122°17'0 0.0
2017-Apr-22 07:59N 37°48' W 122°17'0 0.0
2017-Apr-22 07:26N 37°48' W 122°17'0 0.0
2017-Apr-22 06:56N 37°48' W 122°17'0 0.0
2017-Apr-22 06:29N 37°48' W 122°17'0 0.0
2017-Apr-22 05:59N 37°48' W 122°17'0 0.0
2017-Apr-22 05:29N 37°48' W 122°17'0 0.1
2017-Apr-22 04:59N 37°48' W 122°17'0 0.1
2017-Apr-22 04:28N 37°48' W 122°17'0 0.0
2017-Apr-22 03:58N 37°48' W 122°17'0 0.0
2017-Apr-22 03:28N 37°48' W 122°17'0 0.0
2017-Apr-22 02:58N 37°48' W 122°17'0 0.0
2017-Apr-22 02:28N 37°48' W 122°17'0 0.0
2017-Apr-22 01:58N 37°48' W 122°17'0 0.0
2017-Apr-22 01:28N 37°48' W 122°17'0 0.0
2017-Apr-22 00:58N 37°48' W 122°17'  
2017-Apr-18 22:07N 37°48' W 122°17'0 0.0
2017-Apr-18 22:00N 37°48' W 122°17'3 6.0
2017-Apr-18 21:31N 37°48' W 122°21'3 5.2
2017-Apr-18 21:00N 37°48' W 122°24'0 0.1
2017-Apr-18 20:31N 37°48' W 122°24'0 0.0
2017-Apr-18 19:59N 37°48' W 122°24'0 0.1
2017-Apr-18 19:22N 37°48' W 122°24'0 0.0
2017-Apr-18 18:58N 37°48' W 122°24'0 0.0
2017-Apr-18 18:28N 37°48' W 122°24'0 0.1
2017-Apr-18 17:58N 37°48' W 122°24'0 0.1
2017-Apr-18 17:28N 37°48' W 122°24'0 0.1
2017-Apr-18 16:58N 37°48' W 122°24'0 0.0
2017-Apr-18 16:28N 37°48' W 122°24'0 0.1
2017-Apr-18 15:58N 37°48' W 122°24'0 0.1
2017-Apr-18 15:28N 37°48' W 122°24'0 0.0
2017-Apr-18 14:58N 37°48' W 122°24'0 0.0
2017-Apr-18 14:30N 37°48' W 122°24'4 4.0
2017-Apr-18 13:31N 37°48' W 122°19'2 3.3
2017-Apr-18 13:00N 37°48' W 122°17'0 0.0
2017-Apr-18 12:28N 37°48' W 122°17'0 0.0
2017-Apr-18 11:58N 37°48' W 122°17'0 0.0
2017-Apr-18 11:28N 37°48' W 122°17'0 0.0
2017-Apr-18 10:55N 37°48' W 122°17'0 0.0
2017-Apr-18 10:28N 37°48' W 122°17'0 0.0
2017-Apr-18 09:58N 37°48' W 122°17'0 0.0
2017-Apr-18 09:28N 37°48' W 122°17'0 0.0
2017-Apr-18 08:58N 37°48' W 122°17'0 0.1
2017-Apr-18 08:28N 37°48' W 122°17'0 0.1
2017-Apr-18 07:58N 37°48' W 122°17'0 0.0
2017-Apr-18 07:28N 37°48' W 122°17'0 0.0
2017-Apr-18 06:58N 37°48' W 122°17'0 0.0
2017-Apr-18 06:28N 37°48' W 122°17'0 0.0
2017-Apr-18 05:58N 37°48' W 122°17'0 0.0
2017-Apr-18 05:22N 37°48' W 122°17'0 0.0
2017-Apr-18 04:58N 37°48' W 122°17'0 0.0
2017-Apr-18 04:28N 37°48' W 122°17'0 0.0
2017-Apr-18 03:55N 37°48' W 122°17'0 0.0
2017-Apr-18 03:28N 37°48' W 122°17'0 0.0
2017-Apr-18 02:58N 37°48' W 122°17'0 0.0
2017-Apr-18 02:25N 37°48' W 122°17'0 0.0
2017-Apr-18 01:58N 37°48' W 122°17'0 0.0
2017-Apr-18 01:28N 37°48' W 122°17'0 0.0
2017-Apr-18 00:58N 37°48' W 122°17'0 0.0
2017-Apr-18 00:28N 37°48' W 122°17'0 0.0
2017-Apr-17 23:58N 37°48' W 122°17'0 0.0
2017-Apr-17 23:28N 37°48' W 122°17'0 0.3
2017-Apr-17 23:00N 37°48' W 122°17'0 0.3
2017-Apr-17 22:29N 37°48' W 122°17'0 0.0
2017-Apr-17 21:53N 37°48' W 122°17'0 0.0
2017-Apr-17 21:29N 37°48' W 122°17'0 0.0
2017-Apr-17 20:59N 37°48' W 122°17'0 0.0
2017-Apr-17 20:29N 37°48' W 122°17'0 0.0
2017-Apr-17 19:59N 37°48' W 122°17'0 0.0
2017-Apr-17 19:29N 37°48' W 122°17'0 0.0
2017-Apr-17 18:59N 37°48' W 122°17'0 0.0
2017-Apr-17 18:29N 37°48' W 122°17'0 0.0
2017-Apr-17 17:59N 37°48' W 122°17'0 0.6
2017-Apr-17 17:30N 37°48' W 122°17'3 5.8
2017-Apr-17 17:00N 37°49' W 122°21'4 8.7
2017-Apr-17 16:30N 37°52' W 122°24'3 5.6
2017-Apr-17 16:00N 37°54' W 122°22'1 0.3
2017-Apr-17 13:44N 37°55' W 122°22'0 0.0
2017-Apr-17 13:20N 37°55' W 122°22'0 0.0
2017-Apr-17 12:50N 37°55' W 122°22'0 0.0
2017-Apr-17 12:26N 37°55' W 122°22'0 0.0
2017-Apr-17 11:56N 37°55' W 122°22'0 0.0
2017-Apr-17 11:26N 37°55' W 122°22'0 0.0
2017-Apr-17 10:56N 37°55' W 122°22'0 0.0
2017-Apr-17 10:14N 37°55' W 122°22'0 0.0
2017-Apr-17 09:56N 37°55' W 122°22'0 0.0
2017-Apr-17 09:26N 37°55' W 122°22'0 0.0
2017-Apr-17 08:56N 37°55' W 122°22'0 0.0
2017-Apr-17 08:26N 37°55' W 122°22'0 0.0
2017-Apr-17 07:56N 37°55' W 122°22'0 0.0
2017-Apr-17 07:26N 37°55' W 122°22'0 0.0
2017-Apr-17 06:56N 37°55' W 122°22'0 0.0
2017-Apr-17 06:26N 37°55' W 122°22'0 0.0
2017-Apr-17 05:56N 37°55' W 122°22'0 0.0
2017-Apr-17 05:26N 37°55' W 122°22'0 0.0
2017-Apr-17 04:50N 37°55' W 122°22'0 0.0
2017-Apr-17 04:26N 37°55' W 122°22'0 0.0
2017-Apr-17 03:56N 37°55' W 122°22'0 0.0
2017-Apr-17 03:20N 37°55' W 122°22'0 0.0
2017-Apr-17 02:50N 37°55' W 122°22'0 0.0
2017-Apr-17 02:26N 37°55' W 122°22'0 0.0
2017-Apr-17 01:56N 37°55' W 122°22'0 0.0
2017-Apr-17 01:20N 37°55' W 122°22'0 0.0
2017-Apr-17 00:53N 37°55' W 122°22'0 0.0
2017-Apr-17 00:26N 37°55' W 122°22'0 0.0
2017-Apr-16 23:59N 37°55' W 122°22'0 0.0
2017-Apr-16 23:26N 37°55' W 122°22'0 0.0
2017-Apr-16 22:53N 37°55' W 122°22'0 0.0
2017-Apr-16 22:29N 37°55' W 122°22'0 0.0
2017-Apr-16 21:56N 37°55' W 122°22'0 0.0
2017-Apr-16 21:26N 37°55' W 122°22'0 0.0
2017-Apr-16 19:50N 37°55' W 122°22'0 0.0
2017-Apr-16 19:19N 37°55' W 122°22'0 0.0
2017-Apr-16 18:58N 37°55' W 122°22'0 0.0
2017-Apr-16 18:25N 37°55' W 122°22'0 0.0
2017-Apr-16 17:55N 37°55' W 122°22'0 0.0
2017-Apr-16 17:19N 37°55' W 122°22'0 0.0
2017-Apr-16 16:55N 37°55' W 122°22'0 0.0
2017-Apr-16 16:25N 37°55' W 122°22'0 0.1
2017-Apr-16 16:00N 37°55' W 122°22'2 4.7
2017-Apr-16 15:30N 37°53' W 122°24'4 8.9
2017-Apr-16 15:00N 37°49' W 122°22'4 3.8
2017-Apr-16 13:59N 37°48' W 122°17'0 0.0
2017-Apr-16 13:29N 37°48' W 122°17'0 0.1
2017-Apr-16 12:56N 37°48' W 122°17'0 0.0
2017-Apr-16 12:29N 37°48' W 122°17'0 0.0
2017-Apr-16 11:59N 37°48' W 122°17'0 0.1
2017-Apr-16 11:29N 37°48' W 122°17'0 0.0
2017-Apr-16 10:59N 37°48' W 122°17'0 0.1
2017-Apr-16 10:29N 37°48' W 122°17'0 0.0
2017-Apr-16 09:50N 37°48' W 122°17'0 0.1
2017-Apr-16 09:28N 37°48' W 122°17'0 0.0
2017-Apr-16 08:58N 37°48' W 122°17'0 0.1
2017-Apr-16 08:28N 37°48' W 122°17'0 0.3
2017-Apr-16 07:55N 37°48' W 122°17'0 0.2
2017-Apr-16 07:29N 37°48' W 122°17'0 0.5
2017-Apr-16 06:59N 37°48' W 122°17'0 0.0
2017-Apr-16 06:29N 37°48' W 122°17'0 0.0
2017-Apr-16 05:59N 37°48' W 122°17'0 0.0
2017-Apr-16 05:29N 37°48' W 122°17'0 0.0
2017-Apr-16 04:59N 37°48' W 122°17'0 0.0
2017-Apr-16 04:29N 37°48' W 122°17'0 0.0
2017-Apr-16 04:00N 37°48' W 122°17'3 5.4
2017-Apr-16 03:30N 37°48' W 122°20'3 5.0
2017-Apr-16 03:00N 37°46' W 122°21'0 0.0
2017-Apr-16 02:29N 37°46' W 122°21'0 0.1
2017-Apr-16 01:56N 37°46' W 122°21'0 0.0
2017-Apr-16 01:29N 37°46' W 122°21'0 0.3
2017-Apr-16 00:59N 37°46' W 122°21'0 0.1
2017-Apr-16 00:29N 37°46' W 122°21'0 0.3
2017-Apr-15 23:59N 37°45' W 122°21'0 0.2
2017-Apr-15 23:29N 37°45' W 122°21'0 0.0
2017-Apr-15 22:59N 37°45' W 122°21'0 0.0
2017-Apr-15 22:29N 37°45' W 122°21'0 0.0
2017-Apr-15 21:59N 37°45' W 122°21'0 0.0
2017-Apr-15 21:29N 37°45' W 122°21'0 0.0
2017-Apr-15 20:59N 37°45' W 122°21'0 0.0
2017-Apr-15 20:29N 37°45' W 122°21'0 0.0
2017-Apr-15 19:59N 37°45' W 122°21'0 0.0
2017-Apr-15 19:29N 37°45' W 122°21'0 0.1
2017-Apr-15 18:59N 37°45' W 122°21'0 0.1
2017-Apr-15 18:26N 37°45' W 122°21'0 0.6
2017-Apr-15 18:00N 37°45' W 122°21'3 6.0
2017-Apr-15 17:30N 37°48' W 122°20'2 4.5
2017-Apr-15 17:00N 37°48' W 122°17'0 0.0
2017-Apr-15 16:28N 37°48' W 122°17'0 0.0
2017-Apr-15 15:55N 37°48' W 122°17'0 0.0
2017-Apr-15 15:28N 37°48' W 122°17'0 0.0
2017-Apr-15 14:58N 37°48' W 122°17'0 0.0
2017-Apr-15 14:25N 37°48' W 122°17'0 0.0
2017-Apr-15 13:25N 37°48' W 122°17'0 0.0
2017-Apr-15 12:55N 37°48' W 122°17'0 0.0
2017-Apr-15 12:25N 37°48' W 122°17'0 0.0
2017-Apr-15 11:55N 37°48' W 122°17'0 0.0
2017-Apr-15 11:31N 37°48' W 122°17'0 0.0
2017-Apr-15 11:01N 37°48' W 122°17'0 0.0
2017-Apr-15 10:27N 37°48' W 122°17'0 0.0
2017-Apr-15 10:00N 37°48' W 122°17'0 0.0
2017-Apr-15 09:30N 37°48' W 122°17'0 0.0
2017-Apr-15 08:57N 37°48' W 122°17'0 0.0
2017-Apr-15 08:30N 37°48' W 122°17'0 0.0
2017-Apr-15 08:00N 37°48' W 122°17'0 0.0
2017-Apr-15 07:30N 37°48' W 122°17'0 0.0
2017-Apr-15 07:00N 37°48' W 122°17'0 0.0
2017-Apr-15 06:30N 37°48' W 122°17'0 0.0
2017-Apr-15 06:00N 37°48' W 122°17'0 0.0
2017-Apr-15 05:18N 37°48' W 122°17'0 0.0
2017-Apr-15 05:00N 37°48' W 122°17'0 0.0
2017-Apr-15 04:30N 37°48' W 122°17'0 0.0
2017-Apr-15 03:57N 37°48' W 122°17'0 0.0
2017-Apr-15 03:30N 37°48' W 122°17'0 0.0
2017-Apr-15 03:00N 37°48' W 122°17'0 0.0
2017-Apr-15 02:27N 37°48' W 122°17'0 0.0
2017-Apr-15 02:00N 37°48' W 122°17'0 0.0
2017-Apr-15 01:30N 37°48' W 122°17'0 0.0
2017-Apr-15 00:51N 37°48' W 122°17'0 0.0
2017-Apr-15 00:30N 37°48' W 122°17'0 0.0
2017-Apr-15 00:00N 37°48' W 122°17'2 3.2
2017-Apr-14 23:30N 37°48' W 122°19'  
Track history (hours):
 
Tides and Currents Weather Stations Pressure Air Temp Water Temp Dewpoint Dewpoint Depression Visibility Wind Speed Wind Dir Waves Ship Positions

Royal Melbourne

Owner: Harley Marine Services, Inc, Seattle, WA. More information available from US FCC via Universal Licensing System and Coast Guard Vessel Documentation Center.

Last reported at 2017-Apr-24 23:00 UTC. Time now 2017-Apr-24 23:02 UTC.
Position N 37°48' W 122°17'.

Length 30 m; draft 2 m.

Type: Tug. MMSI: 366998830.

Date/timePositionNaut miles runAvg speedWind from/ knotsBaromVisibWave heightAir tempDewpointWater temp
2017-Apr-24 23:00N 37°48' W 122°17'0 0.0
2017-Apr-24 22:30N 37°48' W 122°17'0 0.0
2017-Apr-24 21:57N 37°48' W 122°17'0 0.0
2017-Apr-24 21:27N 37°48' W 122°17'0 0.0
2017-Apr-24 21:00N 37°48' W 122°17'0 0.0
2017-Apr-24 20:30N 37°48' W 122°17'0 0.0
2017-Apr-24 20:00N 37°48' W 122°17'0 0.0
2017-Apr-24 19:27N 37°48' W 122°17'0 0.0
2017-Apr-24 19:00N 37°48' W 122°17'0 0.0
2017-Apr-24 18:30N 37°48' W 122°17'0 0.0
2017-Apr-24 18:00N 37°48' W 122°17'0 0.0
2017-Apr-24 17:30N 37°48' W 122°17'0 0.0
2017-Apr-24 17:00N 37°48' W 122°17'0 0.0
2017-Apr-24 16:30N 37°48' W 122°17'0 0.0
2017-Apr-24 16:00N 37°48' W 122°17'0 0.0
2017-Apr-24 15:27N 37°48' W 122°17'0 0.0
2017-Apr-24 15:00N 37°48' W 122°17'0 0.0
2017-Apr-24 14:30N 37°48' W 122°17'3 3.5
2017-Apr-24 13:30N 37°45' W 122°20'0 0.3
2017-Apr-24 12:59N 37°45' W 122°20'0 0.2
2017-Apr-24 12:26N 37°45' W 122°20'0 0.1
2017-Apr-24 11:59N 37°45' W 122°20'0 0.1
2017-Apr-24 11:29N 37°45' W 122°20'0 0.0
2017-Apr-24 10:59N 37°45' W 122°20'0 0.0
2017-Apr-24 10:29N 37°45' W 122°20'0 0.0
2017-Apr-24 09:59N 37°45' W 122°20'0 0.0
2017-Apr-24 09:29N 37°45' W 122°20'0 0.0
2017-Apr-24 08:59N 37°45' W 122°20'0 0.0
2017-Apr-24 08:29N 37°45' W 122°20'0 0.0
2017-Apr-24 07:59N 37°45' W 122°20'0 0.4
2017-Apr-24 07:29N 37°45' W 122°20'0 0.1
2017-Apr-24 06:59N 37°45' W 122°20'0 0.1
2017-Apr-24 06:29N 37°45' W 122°20'0 0.0
2017-Apr-24 05:56N 37°45' W 122°20'0 0.0
2017-Apr-24 05:29N 37°45' W 122°20'0 0.0
2017-Apr-24 04:56N 37°45' W 122°20'0 0.1
2017-Apr-24 04:28N 37°45' W 122°20'0 0.0
2017-Apr-24 03:58N 37°45' W 122°20'0 0.1
2017-Apr-24 03:28N 37°45' W 122°20'0 0.0
2017-Apr-24 02:58N 37°45' W 122°20'0 0.3
2017-Apr-24 02:30N 37°45' W 122°20'1 1.0
2017-Apr-24 01:59N 37°45' W 122°20'0 0.0
2017-Apr-24 01:29N 37°45' W 122°20'0 0.1
2017-Apr-24 00:59N 37°45' W 122°20'0 0.0
2017-Apr-24 00:29N 37°45' W 122°20'0 0.0
2017-Apr-23 23:59N 37°46' W 122°20'2 3.6
2017-Apr-23 23:30N 37°47' W 122°21'3 5.1
2017-Apr-23 23:00N 37°48' W 122°24'0 0.0
2017-Apr-23 22:25N 37°48' W 122°24'0 0.1
2017-Apr-23 21:55N 37°48' W 122°24'0 0.1
2017-Apr-23 21:25N 37°48' W 122°24'0 0.1
2017-Apr-23 20:58N 37°48' W 122°24'0 0.0
2017-Apr-23 20:28N 37°48' W 122°24'0 0.0
2017-Apr-23 19:58N 37°48' W 122°24'0 0.0
2017-Apr-23 19:13N 37°48' W 122°24'0 0.2
2017-Apr-23 18:58N 37°48' W 122°24'0 0.0
2017-Apr-23 18:28N 37°48' W 122°24'0 0.0
2017-Apr-23 17:58N 37°48' W 122°24'0 0.0
2017-Apr-23 17:28N 37°48' W 122°24'0 0.0
2017-Apr-23 16:58N 37°48' W 122°24'0 0.1
2017-Apr-23 16:28N 37°48' W 122°24'0 0.1
2017-Apr-23 15:52N 37°48' W 122°24'0 0.0
2017-Apr-23 15:25N 37°48' W 122°24'0 0.1
2017-Apr-23 14:46N 37°48' W 122°24'0 0.1
2017-Apr-23 14:00N 37°48' W 122°24'2 3.5
2017-Apr-23 13:30N 37°50' W 122°23'3 5.1
2017-Apr-23 13:00N 37°52' W 122°24'2 4.6
2017-Apr-23 12:30N 37°54' W 122°22'1 1.2
2017-Apr-23 11:55N 37°55' W 122°22'0 0.0
2017-Apr-23 11:28N 37°55' W 122°22'0 0.0
2017-Apr-23 10:55N 37°55' W 122°22'0 0.0
2017-Apr-23 10:28N 37°55' W 122°22'0 0.0
2017-Apr-23 09:58N 37°55' W 122°22'0 0.0
2017-Apr-23 09:25N 37°55' W 122°22'0 0.0
2017-Apr-23 08:55N 37°55' W 122°22'0 0.0
2017-Apr-23 08:25N 37°55' W 122°22'0 0.0
2017-Apr-23 07:55N 37°55' W 122°22'0 0.0
2017-Apr-23 07:16N 37°55' W 122°22'0 0.0
2017-Apr-23 06:58N 37°55' W 122°22'0 0.0
2017-Apr-23 05:58N 37°55' W 122°22'0 0.0
2017-Apr-23 05:25N 37°55' W 122°22'0 0.0
2017-Apr-23 04:52N 37°55' W 122°22'0 0.0
2017-Apr-23 04:28N 37°55' W 122°22'0 0.0
2017-Apr-23 03:55N 37°55' W 122°22'0 0.0
2017-Apr-23 03:28N 37°55' W 122°22'0 0.0
2017-Apr-23 02:58N 37°55' W 122°22'0 0.0
2017-Apr-23 02:28N 37°55' W 122°22'0 0.0
2017-Apr-23 01:58N 37°55' W 122°22'0 0.0
2017-Apr-23 01:22N 37°55' W 122°22'0 0.0
2017-Apr-23 00:43N 37°55' W 122°22'0 0.0
2017-Apr-23 00:28N 37°55' W 122°22'0 0.0
2017-Apr-22 23:55N 37°55' W 122°22'0 0.0
2017-Apr-22 23:28N 37°55' W 122°22'0 0.0
2017-Apr-22 22:43N 37°55' W 122°22'0 0.0
2017-Apr-22 22:22N 37°55' W 122°22'0 0.0
2017-Apr-22 21:58N 37°55' W 122°22'0 0.0
2017-Apr-22 21:28N 37°55' W 122°22'0 0.0
2017-Apr-22 20:58N 37°55' W 122°22'0 0.0
2017-Apr-22 20:22N 37°55' W 122°22'0 0.0
2017-Apr-22 19:58N 37°55' W 122°22'0 0.0
2017-Apr-22 19:19N 37°55' W 122°22'0 0.2
2017-Apr-22 18:55N 37°55' W 122°22'0 0.0
2017-Apr-22 18:28N 37°55' W 122°22'0 0.0
2017-Apr-22 17:55N 37°55' W 122°22'0 0.0
2017-Apr-22 17:25N 37°55' W 122°22'0 0.0
2017-Apr-22 16:58N 37°55' W 122°22'0 0.0
2017-Apr-22 16:28N 37°55' W 122°22'0 0.0
2017-Apr-22 15:55N 37°55' W 122°22'0 0.0
2017-Apr-22 15:30N 37°55' W 122°22'2 3.8
2017-Apr-22 14:58N 37°55' W 122°24'4 7.8
2017-Apr-22 14:29N 37°58' W 122°26'9 9.2
2017-Apr-22 13:30N 38°04' W 122°16'0 0.7
2017-Apr-22 13:00N 38°03' W 122°16'3 5.9
2017-Apr-22 12:30N 38°03' W 122°20'4 7.6
2017-Apr-22 12:00N 38°01' W 122°24'4 8.1
2017-Apr-22 11:29N 37°57' W 122°26'4 8.7
2017-Apr-22 11:00N 37°53' W 122°24'4 8.9
2017-Apr-22 10:30N 37°49' W 122°21'4 7.5
2017-Apr-22 09:59N 37°48' W 122°17'0 0.0
2017-Apr-22 09:29N 37°48' W 122°17'0 0.0
2017-Apr-22 09:00N 37°48' W 122°17'0 0.0
2017-Apr-22 08:29N 37°48' W 122°17'0 0.0
2017-Apr-22 07:59N 37°48' W 122°17'0 0.0
2017-Apr-22 07:26N 37°48' W 122°17'0 0.0
2017-Apr-22 06:56N 37°48' W 122°17'0 0.0
2017-Apr-22 06:29N 37°48' W 122°17'0 0.0
2017-Apr-22 05:59N 37°48' W 122°17'0 0.0
2017-Apr-22 05:29N 37°48' W 122°17'0 0.1
2017-Apr-22 04:59N 37°48' W 122°17'0 0.1
2017-Apr-22 04:28N 37°48' W 122°17'0 0.0
2017-Apr-22 03:58N 37°48' W 122°17'0 0.0
2017-Apr-22 03:28N 37°48' W 122°17'0 0.0
2017-Apr-22 02:58N 37°48' W 122°17'0 0.0
2017-Apr-22 02:28N 37°48' W 122°17'0 0.0
2017-Apr-22 01:58N 37°48' W 122°17'0 0.0
2017-Apr-22 01:28N 37°48' W 122°17'0 0.0
2017-Apr-22 00:58N 37°48' W 122°17'  
2017-Apr-18 22:07N 37°48' W 122°17'0 0.0
2017-Apr-18 22:00N 37°48' W 122°17'3 6.0
2017-Apr-18 21:31N 37°48' W 122°21'3 5.2
2017-Apr-18 21:00N 37°48' W 122°24'0 0.1
2017-Apr-18 20:31N 37°48' W 122°24'0 0.0
2017-Apr-18 19:59N 37°48' W 122°24'0 0.1
2017-Apr-18 19:22N 37°48' W 122°24'0 0.0
2017-Apr-18 18:58N 37°48' W 122°24'0 0.0
2017-Apr-18 18:28N 37°48' W 122°24'0 0.1
2017-Apr-18 17:58N 37°48' W 122°24'0 0.1
2017-Apr-18 17:28N 37°48' W 122°24'0 0.1
2017-Apr-18 16:58N 37°48' W 122°24'0 0.0
2017-Apr-18 16:28N 37°48' W 122°24'0 0.1
2017-Apr-18 15:58N 37°48' W 122°24'0 0.1
2017-Apr-18 15:28N 37°48' W 122°24'0 0.0
2017-Apr-18 14:58N 37°48' W 122°24'0 0.0
2017-Apr-18 14:30N 37°48' W 122°24'4 4.0
2017-Apr-18 13:31N 37°48' W 122°19'2 3.3
2017-Apr-18 13:00N 37°48' W 122°17'0 0.0
2017-Apr-18 12:28N 37°48' W 122°17'0 0.0
2017-Apr-18 11:58N 37°48' W 122°17'0 0.0
2017-Apr-18 11:28N 37°48' W 122°17'0 0.0
2017-Apr-18 10:55N 37°48' W 122°17'0 0.0
2017-Apr-18 10:28N 37°48' W 122°17'0 0.0
2017-Apr-18 09:58N 37°48' W 122°17'0 0.0
2017-Apr-18 09:28N 37°48' W 122°17'0 0.0
2017-Apr-18 08:58N 37°48' W 122°17'0 0.1
2017-Apr-18 08:28N 37°48' W 122°17'0 0.1
2017-Apr-18 07:58N 37°48' W 122°17'0 0.0
2017-Apr-18 07:28N 37°48' W 122°17'0 0.0
2017-Apr-18 06:58N 37°48' W 122°17'0 0.0
2017-Apr-18 06:28N 37°48' W 122°17'0 0.0
2017-Apr-18 05:58N 37°48' W 122°17'0 0.0
2017-Apr-18 05:22N 37°48' W 122°17'0 0.0
2017-Apr-18 04:58N 37°48' W 122°17'0 0.0
2017-Apr-18 04:28N 37°48' W 122°17'0 0.0
2017-Apr-18 03:55N 37°48' W 122°17'0 0.0
2017-Apr-18 03:28N 37°48' W 122°17'0 0.0
2017-Apr-18 02:58N 37°48' W 122°17'0 0.0
2017-Apr-18 02:25N 37°48' W 122°17'0 0.0
2017-Apr-18 01:58N 37°48' W 122°17'0 0.0
2017-Apr-18 01:28N 37°48' W 122°17'0 0.0
2017-Apr-18 00:58N 37°48' W 122°17'0 0.0
2017-Apr-18 00:28N 37°48' W 122°17'0 0.0
2017-Apr-17 23:58N 37°48' W 122°17'0 0.0
2017-Apr-17 23:28N 37°48' W 122°17'0 0.3
2017-Apr-17 23:00N 37°48' W 122°17'0 0.3
2017-Apr-17 22:29N 37°48' W 122°17'0 0.0
2017-Apr-17 21:53N 37°48' W 122°17'0 0.0
2017-Apr-17 21:29N 37°48' W 122°17'0 0.0
2017-Apr-17 20:59N 37°48' W 122°17'0 0.0
2017-Apr-17 20:29N 37°48' W 122°17'0 0.0
2017-Apr-17 19:59N 37°48' W 122°17'0 0.0
2017-Apr-17 19:29N 37°48' W 122°17'0 0.0
2017-Apr-17 18:59N 37°48' W 122°17'0 0.0
2017-Apr-17 18:29N 37°48' W 122°17'0 0.0
2017-Apr-17 17:59N 37°48' W 122°17'0 0.6
2017-Apr-17 17:30N 37°48' W 122°17'3 5.8
2017-Apr-17 17:00N 37°49' W 122°21'4 8.7
2017-Apr-17 16:30N 37°52' W 122°24'3 5.6
2017-Apr-17 16:00N 37°54' W 122°22'1 0.3
2017-Apr-17 13:44N 37°55' W 122°22'0 0.0
2017-Apr-17 13:20N 37°55' W 122°22'0 0.0
2017-Apr-17 12:50N 37°55' W 122°22'0 0.0
2017-Apr-17 12:26N 37°55' W 122°22'0 0.0
2017-Apr-17 11:56N 37°55' W 122°22'0 0.0
2017-Apr-17 11:26N 37°55' W 122°22'0 0.0
2017-Apr-17 10:56N 37°55' W 122°22'0 0.0
2017-Apr-17 10:14N 37°55' W 122°22'0 0.0
2017-Apr-17 09:56N 37°55' W 122°22'0 0.0
2017-Apr-17 09:26N 37°55' W 122°22'0 0.0
2017-Apr-17 08:56N 37°55' W 122°22'0 0.0
2017-Apr-17 08:26N 37°55' W 122°22'0 0.0
2017-Apr-17 07:56N 37°55' W 122°22'0 0.0
2017-Apr-17 07:26N 37°55' W 122°22'0 0.0
2017-Apr-17 06:56N 37°55' W 122°22'0 0.0
2017-Apr-17 06:26N 37°55' W 122°22'0 0.0
2017-Apr-17 05:56N 37°55' W 122°22'0 0.0
2017-Apr-17 05:26N 37°55' W 122°22'0 0.0
2017-Apr-17 04:50N 37°55' W 122°22'0 0.0
2017-Apr-17 04:26N 37°55' W 122°22'0 0.0
2017-Apr-17 03:56N 37°55' W 122°22'0 0.0
2017-Apr-17 03:20N 37°55' W 122°22'0 0.0
2017-Apr-17 02:50N 37°55' W 122°22'0 0.0
2017-Apr-17 02:26N 37°55' W 122°22'0 0.0
2017-Apr-17 01:56N 37°55' W 122°22'0 0.0
2017-Apr-17 01:20N 37°55' W 122°22'0 0.0
2017-Apr-17 00:53N 37°55' W 122°22'0 0.0
2017-Apr-17 00:26N 37°55' W 122°22'0 0.0
2017-Apr-16 23:59N 37°55' W 122°22'0 0.0
2017-Apr-16 23:26N 37°55' W 122°22'0 0.0
2017-Apr-16 22:53N 37°55' W 122°22'0 0.0
2017-Apr-16 22:29N 37°55' W 122°22'0 0.0
2017-Apr-16 21:56N 37°55' W 122°22'0 0.0
2017-Apr-16 21:26N 37°55' W 122°22'0 0.0
2017-Apr-16 19:50N 37°55' W 122°22'0 0.0
2017-Apr-16 19:19N 37°55' W 122°22'0 0.0
2017-Apr-16 18:58N 37°55' W 122°22'0 0.0
2017-Apr-16 18:25N 37°55' W 122°22'0 0.0
2017-Apr-16 17:55N 37°55' W 122°22'0 0.0
2017-Apr-16 17:19N 37°55' W 122°22'0 0.0
2017-Apr-16 16:55N 37°55' W 122°22'0 0.0
2017-Apr-16 16:25N 37°55' W 122°22'0 0.1
2017-Apr-16 16:00N 37°55' W 122°22'2 4.7
2017-Apr-16 15:30N 37°53' W 122°24'4 8.9
2017-Apr-16 15:00N 37°49' W 122°22'4 3.8
2017-Apr-16 13:59N 37°48' W 122°17'0 0.0
2017-Apr-16 13:29N 37°48' W 122°17'0 0.1
2017-Apr-16 12:56N 37°48' W 122°17'0 0.0
2017-Apr-16 12:29N 37°48' W 122°17'0 0.0
2017-Apr-16 11:59N 37°48' W 122°17'0 0.1
2017-Apr-16 11:29N 37°48' W 122°17'0 0.0
2017-Apr-16 10:59N 37°48' W 122°17'0 0.1
2017-Apr-16 10:29N 37°48' W 122°17'0 0.0
2017-Apr-16 09:50N 37°48' W 122°17'0 0.1
2017-Apr-16 09:28N 37°48' W 122°17'0 0.0
2017-Apr-16 08:58N 37°48' W 122°17'0 0.1
2017-Apr-16 08:28N 37°48' W 122°17'0 0.3
2017-Apr-16 07:55N 37°48' W 122°17'0 0.2
2017-Apr-16 07:29N 37°48' W 122°17'0 0.5
2017-Apr-16 06:59N 37°48' W 122°17'0 0.0
2017-Apr-16 06:29N 37°48' W 122°17'0 0.0
2017-Apr-16 05:59N 37°48' W 122°17'0 0.0
2017-Apr-16 05:29N 37°48' W 122°17'0 0.0
2017-Apr-16 04:59N 37°48' W 122°17'0 0.0
2017-Apr-16 04:29N 37°48' W 122°17'0 0.0
2017-Apr-16 04:00N 37°48' W 122°17'3 5.4
2017-Apr-16 03:30N 37°48' W 122°20'3 5.0
2017-Apr-16 03:00N 37°46' W 122°21'0 0.0
2017-Apr-16 02:29N 37°46' W 122°21'0 0.1
2017-Apr-16 01:56N 37°46' W 122°21'0 0.0
2017-Apr-16 01:29N 37°46' W 122°21'0 0.3
2017-Apr-16 00:59N 37°46' W 122°21'0 0.1
2017-Apr-16 00:29N 37°46' W 122°21'0 0.3
2017-Apr-15 23:59N 37°45' W 122°21'0 0.2
2017-Apr-15 23:29N 37°45' W 122°21'0 0.0
2017-Apr-15 22:59N 37°45' W 122°21'0 0.0
2017-Apr-15 22:29N 37°45' W 122°21'0 0.0
2017-Apr-15 21:59N 37°45' W 122°21'0 0.0
2017-Apr-15 21:29N 37°45' W 122°21'0 0.0
2017-Apr-15 20:59N 37°45' W 122°21'0 0.0
2017-Apr-15 20:29N 37°45' W 122°21'0 0.0
2017-Apr-15 19:59N 37°45' W 122°21'0 0.0
2017-Apr-15 19:29N 37°45' W 122°21'0 0.1
2017-Apr-15 18:59N 37°45' W 122°21'0 0.1
2017-Apr-15 18:26N 37°45' W 122°21'0 0.6
2017-Apr-15 18:00N 37°45' W 122°21'3 6.0
2017-Apr-15 17:30N 37°48' W 122°20'2 4.5
2017-Apr-15 17:00N 37°48' W 122°17'0 0.0
2017-Apr-15 16:28N 37°48' W 122°17'0 0.0
2017-Apr-15 15:55N 37°48' W 122°17'0 0.0
2017-Apr-15 15:28N 37°48' W 122°17'0 0.0
2017-Apr-15 14:58N 37°48' W 122°17'0 0.0
2017-Apr-15 14:25N 37°48' W 122°17'0 0.0
2017-Apr-15 13:25N 37°48' W 122°17'0 0.0
2017-Apr-15 12:55N 37°48' W 122°17'0 0.0
2017-Apr-15 12:25N 37°48' W 122°17'0 0.0
2017-Apr-15 11:55N 37°48' W 122°17'0 0.0
2017-Apr-15 11:31N 37°48' W 122°17'0 0.0
2017-Apr-15 11:01N 37°48' W 122°17'0 0.0
2017-Apr-15 10:27N 37°48' W 122°17'0 0.0
2017-Apr-15 10:00N 37°48' W 122°17'0 0.0
2017-Apr-15 09:30N 37°48' W 122°17'0 0.0
2017-Apr-15 08:57N 37°48' W 122°17'0 0.0
2017-Apr-15 08:30N 37°48' W 122°17'0 0.0
2017-Apr-15 08:00N 37°48' W 122°17'0 0.0
2017-Apr-15 07:30N 37°48' W 122°17'0 0.0
2017-Apr-15 07:00N 37°48' W 122°17'0 0.0
2017-Apr-15 06:30N 37°48' W 122°17'0 0.0
2017-Apr-15 06:00N 37°48' W 122°17'0 0.0
2017-Apr-15 05:18N 37°48' W 122°17'0 0.0
2017-Apr-15 05:00N 37°48' W 122°17'0 0.0
2017-Apr-15 04:30N 37°48' W 122°17'0 0.0
2017-Apr-15 03:57N 37°48' W 122°17'0 0.0
2017-Apr-15 03:30N 37°48' W 122°17'0 0.0
2017-Apr-15 03:00N 37°48' W 122°17'0 0.0
2017-Apr-15 02:27N 37°48' W 122°17'0 0.0
2017-Apr-15 02:00N 37°48' W 122°17'0 0.0
2017-Apr-15 01:30N 37°48' W 122°17'0 0.0
2017-Apr-15 00:51N 37°48' W 122°17'0 0.0
2017-Apr-15 00:30N 37°48' W 122°17'0 0.0
2017-Apr-15 00:00N 37°48' W 122°17'2 3.2
2017-Apr-14 23:30N 37°48' W 122°19'  

Dump ship's entire track history